createdAt,value
2022-11-21T00:01:29.485Z,2.70
2022-11-21T00:03:56.930Z,2.80
2022-11-21T00:06:24.517Z,2.60
2022-11-21T00:08:52.452Z,2.70
2022-11-21T00:11:19.932Z,2.70
2022-11-21T00:13:47.496Z,2.60
2022-11-21T00:16:17.470Z,2.60
2022-11-21T00:18:45.153Z,2.50
2022-11-21T00:21:17.667Z,2.30
2022-11-21T00:23:46.247Z,2.20
2022-11-21T00:26:15.360Z,2.30
2022-11-21T00:28:42.949Z,2.40
2022-11-21T00:31:22.755Z,2.40
2022-11-21T00:33:50.270Z,2.30
2022-11-21T00:36:17.766Z,2.30
2022-11-21T00:38:45.237Z,2.20
2022-11-21T00:41:12.709Z,2.20
2022-11-21T00:43:40.266Z,2.20
2022-11-21T00:46:07.815Z,2.20
2022-11-21T00:48:35.304Z,2.30
2022-11-21T00:51:02.852Z,2.40
2022-11-21T00:53:30.419Z,2.40
2022-11-21T00:55:58.034Z,2.30
2022-11-21T00:58:25.810Z,2.20
2022-11-21T01:00:53.718Z,2.20
2022-11-21T01:03:21.256Z,2.20
2022-11-21T01:05:48.719Z,2.00
2022-11-21T01:08:16.165Z,2.10
2022-11-21T01:10:43.590Z,2.10
2022-11-21T01:13:10.974Z,2.10
2022-11-21T01:15:38.435Z,2.10
2022-11-21T01:18:05.857Z,2.00
2022-11-21T01:20:33.363Z,2.00
2022-11-21T01:23:00.844Z,1.90
2022-11-21T01:25:28.466Z,1.90
2022-11-21T01:27:55.825Z,2.00
2022-11-21T01:30:23.295Z,1.90
2022-11-21T01:32:50.773Z,1.90
2022-11-21T01:35:18.841Z,1.90
2022-11-21T01:37:50.340Z,1.80
2022-11-21T01:40:17.912Z,1.80
2022-11-21T01:42:58.315Z,1.70
2022-11-21T01:45:56.742Z,1.90
2022-11-21T01:48:54.061Z,1.80
2022-11-21T01:51:33.518Z,1.80
2022-11-21T01:54:00.958Z,1.80
2022-11-21T01:56:33.647Z,1.90
2022-11-21T01:59:03.448Z,2.00
2022-11-21T02:01:32.517Z,2.00
2022-11-21T02:04:02.928Z,1.90
2022-11-21T02:06:33.404Z,2.00
2022-11-21T02:09:01.685Z,2.10
2022-11-21T02:11:40.619Z,2.10
2022-11-21T02:14:09.289Z,2.00
2022-11-21T02:16:37.251Z,2.10
2022-11-21T02:19:06.549Z,2.20
2022-11-21T02:22:01.310Z,2.00
2022-11-21T02:24:44.590Z,1.90
2022-11-21T02:27:12.416Z,1.80
2022-11-21T02:29:40.894Z,1.60
2022-11-21T02:32:08.385Z,1.80
2022-11-21T02:34:35.742Z,1.80
2022-11-21T02:37:03.253Z,1.80
2022-11-21T02:39:35.680Z,1.70
2022-11-21T02:42:09.329Z,1.90
2022-11-21T02:44:53.958Z,2.00
2022-11-21T02:47:22.841Z,1.90
2022-11-21T02:50:18.745Z,1.80
2022-11-21T02:52:46.442Z,1.90
2022-11-21T02:55:15.613Z,1.90
2022-11-21T02:57:43.252Z,1.80
2022-11-21T03:00:11.511Z,1.80
2022-11-21T03:02:38.967Z,1.80
2022-11-21T03:05:10.458Z,1.70
2022-11-21T03:07:38.263Z,1.50
2022-11-21T03:10:06.091Z,1.60
2022-11-21T03:12:36.679Z,1.40
2022-11-21T03:15:05.839Z,1.50
2022-11-21T03:17:33.591Z,1.40
2022-11-21T03:20:01.302Z,1.30
2022-11-21T03:22:28.923Z,1.30
2022-11-21T03:24:56.354Z,1.50
2022-11-21T03:27:23.739Z,1.40
2022-11-21T03:29:51.230Z,1.60
2022-11-21T03:32:19.043Z,1.60
2022-11-21T03:34:46.588Z,1.60
2022-11-21T03:37:13.969Z,1.50
2022-11-21T03:39:41.414Z,1.50
2022-11-21T03:42:08.821Z,1.50
2022-11-21T03:44:36.231Z,1.40
2022-11-21T03:47:03.685Z,1.40
2022-11-21T03:49:31.241Z,1.30
2022-11-21T03:51:58.694Z,1.30
2022-11-21T03:54:26.397Z,1.40
2022-11-21T03:56:54.643Z,1.40
2022-11-21T03:59:22.150Z,1.10
2022-11-21T04:01:49.597Z,1.30
2022-11-21T04:04:17.139Z,1.40
2022-11-21T04:06:45.376Z,1.40
2022-11-21T04:09:12.833Z,1.30
2022-11-21T04:11:40.248Z,1.30
2022-11-21T04:14:07.723Z,1.20
2022-11-21T04:16:35.153Z,1.30
2022-11-21T04:19:02.689Z,1.20
2022-11-21T04:21:30.094Z,1.30
2022-11-21T04:23:57.570Z,1.40
2022-11-21T04:26:24.978Z,1.40
2022-11-21T04:28:52.414Z,1.50
2022-11-21T04:31:19.819Z,1.60
2022-11-21T04:33:47.309Z,1.50
2022-11-21T04:36:14.772Z,1.60
2022-11-21T04:38:42.176Z,1.60
2022-11-21T04:41:09.790Z,1.40
2022-11-21T04:43:37.191Z,1.40
2022-11-21T04:46:04.651Z,1.30
2022-11-21T04:48:32.820Z,1.40
2022-11-21T04:51:00.338Z,1.30
2022-11-21T04:53:28.042Z,1.20
2022-11-21T04:55:55.534Z,1.20
2022-11-21T04:58:22.966Z,1.10
2022-11-21T05:00:50.426Z,1.10
2022-11-21T05:03:17.891Z,1.20
2022-11-21T05:05:45.332Z,1.10
2022-11-21T05:08:12.729Z,1.00
2022-11-21T05:10:58.799Z,1.00
2022-11-21T05:13:26.292Z,1.10
2022-11-21T05:15:57.646Z,1.20
2022-11-21T05:18:25.249Z,1.10
2022-11-21T05:20:52.664Z,1.10
2022-11-21T05:23:20.074Z,1.00
2022-11-21T05:25:47.550Z,1.10
2022-11-21T05:28:15.030Z,1.00
2022-11-21T05:30:42.426Z,1.00
2022-11-21T05:33:09.885Z,1.10
2022-11-21T05:35:42.965Z,1.30
2022-11-21T05:38:11.257Z,1.30
2022-11-21T05:40:38.978Z,1.30
2022-11-21T05:43:25.238Z,1.30
2022-11-21T05:45:52.571Z,1.20
2022-11-21T05:48:19.849Z,1.10
2022-11-21T05:50:49.554Z,1.10
2022-11-21T05:53:17.672Z,1.20
2022-11-21T05:55:45.361Z,1.30
2022-11-21T05:58:13.485Z,1.30
2022-11-21T06:00:41.294Z,1.30
2022-11-21T06:03:28.787Z,1.20
2022-11-21T06:06:00.930Z,1.20
2022-11-21T06:08:30.128Z,1.20
2022-11-21T06:10:57.805Z,1.20
2022-11-21T06:13:25.349Z,1.20
2022-11-21T06:15:58.395Z,1.10
2022-11-21T06:18:26.453Z,1.20
2022-11-21T06:20:54.031Z,1.30
2022-11-21T06:23:21.521Z,1.20
2022-11-21T06:25:56.012Z,1.20
2022-11-21T06:28:23.458Z,1.20
2022-11-21T06:30:51.983Z,1.30
2022-11-21T06:33:20.010Z,1.10
2022-11-21T06:35:47.489Z,1.00
2022-11-21T06:38:18.693Z,1.10
2022-11-21T06:40:46.800Z,1.00
2022-11-21T06:43:14.245Z,1.00
2022-11-21T06:45:41.731Z,1.10
2022-11-21T06:48:09.164Z,1.20
2022-11-21T06:50:38.349Z,1.20
2022-11-21T06:53:05.717Z,1.20
2022-11-21T06:55:33.176Z,1.30
2022-11-21T06:58:00.729Z,1.20
2022-11-21T07:00:28.654Z,1.30
2022-11-21T07:03:03.785Z,1.30
2022-11-21T07:05:31.546Z,1.20
2022-11-21T07:08:00.956Z,1.10
2022-11-21T07:10:29.604Z,1.20
2022-11-21T07:13:19.463Z,1.00
2022-11-21T07:15:48.723Z,1.00
2022-11-21T07:18:16.474Z,1.10
2022-11-21T07:20:44.309Z,1.10
2022-11-21T07:23:11.905Z,1.10
2022-11-21T07:25:39.813Z,1.20
2022-11-21T07:28:08.053Z,1.20
2022-11-21T07:30:36.458Z,1.10
2022-11-21T07:33:06.341Z,1.10
2022-11-21T07:35:34.404Z,1.10
2022-11-21T07:38:02.999Z,1.10
2022-11-21T07:40:33.738Z,1.20
2022-11-21T07:43:06.695Z,1.30
2022-11-21T07:45:38.447Z,1.40
2022-11-21T07:48:07.405Z,1.30
2022-11-21T07:50:35.025Z,1.50
2022-11-21T07:53:06.079Z,1.40
2022-11-21T07:55:40.195Z,1.50
2022-11-21T07:58:11.028Z,1.50
2022-11-21T08:00:40.378Z,1.40
2022-11-21T08:03:07.967Z,1.50
2022-11-21T08:05:39.484Z,1.40
2022-11-21T08:08:07.500Z,1.40
2022-11-21T08:10:39.017Z,1.40
2022-11-21T08:13:06.607Z,1.40
2022-11-21T08:15:34.111Z,1.40
2022-11-21T08:18:27.816Z,1.30
2022-11-21T08:20:55.365Z,1.30
2022-11-21T08:23:22.825Z,1.30
2022-11-21T08:25:51.939Z,1.40
2022-11-21T08:28:19.460Z,1.40
2022-11-21T08:30:47.050Z,1.40
2022-11-21T08:33:14.572Z,1.30
2022-11-21T08:35:42.314Z,1.30
2022-11-21T08:38:09.816Z,1.10
2022-11-21T08:40:37.317Z,1.10
2022-11-21T08:43:09.567Z,1.10
2022-11-21T08:45:38.704Z,1.20
2022-11-21T08:48:15.172Z,1.20
2022-11-21T08:50:42.633Z,1.20
2022-11-21T08:53:10.015Z,1.30
2022-11-21T08:55:37.789Z,1.40
2022-11-21T08:58:05.305Z,1.50
2022-11-21T09:00:32.862Z,1.50
2022-11-21T09:03:04.815Z,1.60
2022-11-21T09:05:33.444Z,1.50
2022-11-21T09:08:00.908Z,1.60
2022-11-21T09:10:29.492Z,1.50
2022-11-21T09:13:00.579Z,1.50
2022-11-21T09:15:46.431Z,1.50
2022-11-21T09:18:14.148Z,1.50
2022-11-21T09:20:44.922Z,1.60
2022-11-21T09:23:15.674Z,1.70
2022-11-21T09:25:43.802Z,1.70
2022-11-21T09:28:13.021Z,1.70
2022-11-21T09:30:41.622Z,1.70
2022-11-21T09:33:12.627Z,1.60
2022-11-21T09:35:40.477Z,1.80
2022-11-21T09:38:08.228Z,1.80
2022-11-21T09:40:36.524Z,1.70
2022-11-21T09:43:13.104Z,1.70
2022-11-21T09:46:09.505Z,1.80
2022-11-21T09:48:48.866Z,1.80
2022-11-21T09:51:19.262Z,1.80
2022-11-21T09:53:53.797Z,1.90
2022-11-21T09:56:23.672Z,1.90
2022-11-21T09:59:06.229Z,1.90
2022-11-21T10:01:34.049Z,1.90
2022-11-21T10:04:03.843Z,2.00
2022-11-21T10:06:43.676Z,2.00
2022-11-21T10:09:23.819Z,2.10
2022-11-21T10:12:28.806Z,2.10
2022-11-21T10:15:25.277Z,2.30
2022-11-21T10:18:30.486Z,2.40
2022-11-21T10:21:20.425Z,2.40
2022-11-21T10:24:29.478Z,2.40
2022-11-21T10:27:03.970Z,2.70
2022-11-21T10:29:42.148Z,2.60
2022-11-21T10:32:35.284Z,2.70
2022-11-21T10:35:14.474Z,2.80
2022-11-21T10:37:58.603Z,2.60
2022-11-21T10:40:42.460Z,2.70
2022-11-21T10:43:52.461Z,2.70
2022-11-21T10:46:20.259Z,2.90
2022-11-21T10:48:58.880Z,2.80
2022-11-21T10:51:35.312Z,2.90
2022-11-21T10:54:30.037Z,2.90
2022-11-21T10:57:06.186Z,3.00
2022-11-21T10:59:33.718Z,2.80
2022-11-21T11:02:23.884Z,3.00
2022-11-21T11:05:17.439Z,3.10
2022-11-21T11:08:13.079Z,3.10
2022-11-21T11:10:44.374Z,3.30
2022-11-21T11:13:45.878Z,3.30
2022-11-21T11:16:21.636Z,3.50
2022-11-21T11:19:15.730Z,3.50
2022-11-21T11:21:45.676Z,3.50
2022-11-21T11:24:13.150Z,3.50
2022-11-21T11:26:49.695Z,3.70
2022-11-21T11:29:21.472Z,3.60
2022-11-21T11:32:04.961Z,3.70
2022-11-21T11:34:39.405Z,3.80
2022-11-21T11:37:21.149Z,3.90
2022-11-21T11:40:00.406Z,3.90
2022-11-21T11:43:01.359Z,3.90
2022-11-21T11:46:25.144Z,4.00
2022-11-21T11:49:19.225Z,4.10
2022-11-21T11:51:51.426Z,4.30
2022-11-21T11:54:32.658Z,4.20
2022-11-21T11:57:00.251Z,4.30
2022-11-21T11:59:53.902Z,4.40
2022-11-21T12:02:45.241Z,4.30
2022-11-21T12:05:23.495Z,4.50
2022-11-21T12:11:29.920Z,4.50
2022-11-21T12:13:59.743Z,4.20
2022-11-21T12:16:27.831Z,4.00
2022-11-21T12:19:10.874Z,3.90
2022-11-21T12:21:38.399Z,3.80
2022-11-21T12:24:08.434Z,3.90
2022-11-21T12:27:03.338Z,3.90
2022-11-21T12:29:36.648Z,3.80
2022-11-21T12:32:22.900Z,3.80
2022-11-21T12:35:05.473Z,3.70
2022-11-21T12:37:59.013Z,3.90
2022-11-21T12:40:43.675Z,3.80
2022-11-21T12:43:40.576Z,3.80
2022-11-21T12:46:32.946Z,3.90
2022-11-21T12:49:35.044Z,3.90
2022-11-21T12:52:41.197Z,4.00
2022-11-21T12:55:08.597Z,4.00
2022-11-21T12:58:05.280Z,4.20
2022-11-21T13:00:51.598Z,4.40
2022-11-21T13:04:00.303Z,4.30
2022-11-21T13:06:31.410Z,4.50
2022-11-21T13:09:02.810Z,4.50
2022-11-21T13:11:59.573Z,4.60
2022-11-21T13:15:06.243Z,4.40
2022-11-21T13:17:45.348Z,4.50
2022-11-21T13:20:45.982Z,4.50
2022-11-21T13:23:35.421Z,4.60
2022-11-21T13:26:23.065Z,4.50
2022-11-21T13:28:51.851Z,4.50
2022-11-21T13:31:35.368Z,4.60
2022-11-21T13:34:26.923Z,4.50
2022-11-21T13:36:54.781Z,4.50
2022-11-21T13:39:30.828Z,4.60
2022-11-21T13:42:20.692Z,4.70
2022-11-21T13:44:49.383Z,4.70
2022-11-21T13:47:28.356Z,4.70
2022-11-21T13:50:14.877Z,4.70
2022-11-21T13:53:19.989Z,4.70
2022-11-21T13:56:11.962Z,4.80
2022-11-21T13:58:57.909Z,4.90
2022-11-21T14:01:55.597Z,5.00
2022-11-21T14:04:47.730Z,4.90
2022-11-21T14:07:33.932Z,5.00
2022-11-21T14:10:17.665Z,5.00
2022-11-21T14:12:49.970Z,5.20
2022-11-21T14:15:31.259Z,5.20
2022-11-21T14:18:01.254Z,5.10
2022-11-21T14:20:59.810Z,5.30
2022-11-21T14:23:30.290Z,5.20
2022-11-21T14:26:00.467Z,5.30
2022-11-21T14:28:30.775Z,5.30
2022-11-21T14:31:03.156Z,5.30
2022-11-21T14:33:33.831Z,5.30
2022-11-21T14:36:05.947Z,5.30
2022-11-21T14:38:40.429Z,5.40
2022-11-21T14:41:26.197Z,5.40
2022-11-21T14:44:01.398Z,5.50
2022-11-21T14:46:40.486Z,5.60
2022-11-21T14:49:16.972Z,5.50
2022-11-21T14:51:58.892Z,5.60
2022-11-21T14:54:31.111Z,5.60
2022-11-21T14:57:02.084Z,5.60
2022-11-21T14:59:38.909Z,5.50
2022-11-21T15:02:16.175Z,5.50
2022-11-21T15:04:44.836Z,5.40
2022-11-21T15:10:33.876Z,5.40
2022-11-21T15:13:07.322Z,5.40
2022-11-21T15:15:36.538Z,5.40
2022-11-21T15:21:01.249Z,5.30
2022-11-21T15:23:38.452Z,5.40
2022-11-21T15:26:06.668Z,5.30
2022-11-21T15:28:34.121Z,5.20
2022-11-21T15:31:18.409Z,5.10
2022-11-21T15:34:27.359Z,5.10
2022-11-21T15:37:01.037Z,5.00
2022-11-21T15:39:28.487Z,5.00
2022-11-21T15:41:55.923Z,5.00
2022-11-21T15:44:23.640Z,5.10
2022-11-21T15:46:52.373Z,5.10
2022-11-21T15:49:35.410Z,5.10
2022-11-21T15:52:10.096Z,5.20
2022-11-21T15:54:38.201Z,5.10
2022-11-21T15:57:05.633Z,5.00
2022-11-21T15:57:14.776Z,5.50
2022-11-21T15:59:33.102Z,5.00
2022-11-21T16:02:00.541Z,5.00
2022-11-21T16:04:27.968Z,5.10
2022-11-21T16:06:55.475Z,5.10
2022-11-21T16:09:23.090Z,5.10
2022-11-21T16:11:50.502Z,5.10
2022-11-21T16:14:21.055Z,5.10
2022-11-21T16:16:48.523Z,5.10
2022-11-21T16:19:16.297Z,5.10
2022-11-21T16:21:43.851Z,5.20
2022-11-21T16:24:11.364Z,5.10
2022-11-21T16:26:38.863Z,5.20
2022-11-21T16:29:06.432Z,5.10
2022-11-21T16:31:34.012Z,5.20
2022-11-21T16:34:01.699Z,5.10
2022-11-21T16:36:30.707Z,5.20
2022-11-21T16:39:05.205Z,5.10
2022-11-21T16:41:35.211Z,5.10
2022-11-21T16:44:02.704Z,5.10
2022-11-21T16:46:30.191Z,5.10
2022-11-21T16:49:00.333Z,5.10
2022-11-21T16:51:28.682Z,5.20
2022-11-21T16:53:57.438Z,5.10
2022-11-21T16:56:24.985Z,5.30
2022-11-21T16:58:52.761Z,5.30
2022-11-21T17:01:25.561Z,5.50
2022-11-21T17:03:53.798Z,5.50
2022-11-21T17:06:24.035Z,5.40
2022-11-21T17:08:51.548Z,5.40
2022-11-21T17:11:22.126Z,5.50
2022-11-21T17:13:51.006Z,5.40
2022-11-21T17:16:20.431Z,5.50
2022-11-21T17:18:48.434Z,5.30
2022-11-21T17:21:16.692Z,5.30
2022-11-21T17:23:45.695Z,5.40
2022-11-21T17:26:16.067Z,5.30
2022-11-21T17:28:45.913Z,5.30
2022-11-21T17:31:15.499Z,5.40
2022-11-21T17:33:43.585Z,5.40
2022-11-21T17:36:14.931Z,5.40
2022-11-21T17:38:43.925Z,5.40
2022-11-21T17:41:12.875Z,5.40
2022-11-21T17:43:40.605Z,5.40
2022-11-21T17:46:12.288Z,5.50
2022-11-21T17:48:40.205Z,5.50
2022-11-21T17:51:15.366Z,5.60
2022-11-21T17:53:45.408Z,5.70
2022-11-21T17:56:21.244Z,5.80
2022-11-21T17:58:48.905Z,5.70
2022-11-21T18:01:19.870Z,5.90
2022-11-21T18:03:49.270Z,5.90
2022-11-21T18:06:17.419Z,6.00
2022-11-21T18:08:48.265Z,5.90
2022-11-21T18:11:19.213Z,5.80
2022-11-21T18:13:48.080Z,5.80
2022-11-21T18:16:19.605Z,6.00
2022-11-21T18:18:47.318Z,6.00
2022-11-21T18:21:26.018Z,6.30
2022-11-21T18:23:55.206Z,6.30
2022-11-21T18:26:28.849Z,6.40
2022-11-21T18:29:34.150Z,6.50
2022-11-21T18:31:48.910Z,6.30
2022-11-21T18:34:16.346Z,6.40
2022-11-21T18:36:43.857Z,6.50
2022-11-21T18:39:15.020Z,6.60
2022-11-21T18:41:43.588Z,6.50
2022-11-21T18:44:17.066Z,6.40
2022-11-21T18:46:48.129Z,6.40
2022-11-21T18:49:15.541Z,6.40
2022-11-21T18:51:42.958Z,6.50
2022-11-21T18:54:11.156Z,6.30
2022-11-21T18:56:39.962Z,6.30
2022-11-21T18:59:07.732Z,6.30
2022-11-21T19:01:36.805Z,6.40
2022-11-21T19:04:04.875Z,6.50
2022-11-21T19:06:32.729Z,6.40
2022-11-21T19:09:00.228Z,6.40
2022-11-21T19:11:29.663Z,6.60
2022-11-21T19:13:58.110Z,6.60
2022-11-21T19:16:27.227Z,6.60
2022-11-21T19:21:43.039Z,6.50
2022-11-21T19:24:14.768Z,6.40
2022-11-21T19:26:43.047Z,6.40
2022-11-21T19:29:11.291Z,6.50
2022-11-21T19:31:44.725Z,6.50
2022-11-21T19:34:17.006Z,6.60
2022-11-21T19:36:45.509Z,6.70
2022-11-21T19:39:13.375Z,6.60
2022-11-21T19:41:41.454Z,6.60
2022-11-21T19:44:09.772Z,6.80
2022-11-21T19:46:38.852Z,6.80
2022-11-21T19:49:08.108Z,6.80
2022-11-21T19:51:37.987Z,6.70
2022-11-21T19:54:06.882Z,6.80
2022-11-21T19:56:35.343Z,7.00
2022-11-21T19:59:02.921Z,6.90
2022-11-21T20:01:32.363Z,6.90
2022-11-21T20:04:02.427Z,7.00
2022-11-21T20:06:38.237Z,6.90
2022-11-21T20:09:06.989Z,6.90
2022-11-21T20:11:35.437Z,6.90
2022-11-21T20:14:02.953Z,7.00
2022-11-21T20:16:33.264Z,6.90
2022-11-21T20:19:07.033Z,6.90
2022-11-21T20:21:34.529Z,6.90
2022-11-21T20:24:02.438Z,6.90
2022-11-21T20:26:29.968Z,6.80
2022-11-21T20:28:57.781Z,6.90
2022-11-21T20:31:28.167Z,6.90
2022-11-21T20:34:04.512Z,7.00
2022-11-21T20:36:34.502Z,7.00
2022-11-21T20:39:07.931Z,7.00
2022-11-21T20:41:36.653Z,7.00
2022-11-21T20:45:11.639Z,7.10
2022-11-21T20:46:59.858Z,7.00
2022-11-21T20:49:27.577Z,7.00
2022-11-21T20:54:42.633Z,6.90
2022-11-21T20:57:14.839Z,6.90
2022-11-21T20:59:43.671Z,6.90
2022-11-21T21:02:14.840Z,6.90
2022-11-21T21:04:42.642Z,6.80
2022-11-21T21:07:10.428Z,6.90
2022-11-21T21:09:37.992Z,6.80
2022-11-21T21:12:05.936Z,6.60
2022-11-21T21:14:33.451Z,6.60
2022-11-21T21:17:00.818Z,6.70
2022-11-21T21:19:28.725Z,6.70
2022-11-21T21:21:56.481Z,6.60
2022-11-21T21:24:23.965Z,6.50
2022-11-21T21:26:51.440Z,6.60
2022-11-21T21:29:21.129Z,6.70
2022-11-21T21:31:52.793Z,6.60
2022-11-21T21:34:22.076Z,6.70
2022-11-21T21:36:50.151Z,6.70
2022-11-21T21:39:17.717Z,6.70
2022-11-21T21:41:46.941Z,6.80
2022-11-21T21:44:16.006Z,6.70
2022-11-21T21:46:43.711Z,6.60
2022-11-21T21:49:11.642Z,6.40
2022-11-21T21:51:40.046Z,6.30
2022-11-21T21:54:07.653Z,6.20
2022-11-21T21:56:35.129Z,5.60
2022-11-21T21:59:02.685Z,5.50
2022-11-21T22:01:32.254Z,5.20
2022-11-21T22:04:01.906Z,5.10
2022-11-21T22:06:30.244Z,5.10
2022-11-21T22:08:57.740Z,5.20
2022-11-21T22:11:30.381Z,5.40
2022-11-21T22:14:04.134Z,5.60
2022-11-21T22:16:32.704Z,5.80
2022-11-21T22:19:00.111Z,5.50
2022-11-21T22:21:33.612Z,5.40
2022-11-21T22:26:51.041Z,5.60
2022-11-21T22:29:18.487Z,5.80
2022-11-21T22:31:45.925Z,5.90
2022-11-21T22:34:14.323Z,5.80
2022-11-21T22:36:42.129Z,5.50
2022-11-21T22:39:09.623Z,6.00
2022-11-21T22:41:37.174Z,5.90
2022-11-21T22:44:04.687Z,5.80
2022-11-21T22:46:32.130Z,5.90
2022-11-21T22:48:59.691Z,5.70
2022-11-21T22:51:31.691Z,5.70
2022-11-21T22:53:59.282Z,5.90
2022-11-21T22:56:27.215Z,5.90
2022-11-21T22:58:56.085Z,5.90
2022-11-21T23:01:25.458Z,5.90
2022-11-21T23:03:53.147Z,6.20
2022-11-21T23:06:23.825Z,5.70
2022-11-21T23:08:55.892Z,5.90
2022-11-21T23:11:29.162Z,5.80
2022-11-21T23:13:57.431Z,5.80
2022-11-21T23:16:25.928Z,6.10
2022-11-21T23:18:54.648Z,6.00
2022-11-21T23:21:22.808Z,5.80
2022-11-21T23:23:50.263Z,5.80
2022-11-21T23:26:17.852Z,5.80
2022-11-21T23:28:45.388Z,6.20
2022-11-21T23:31:12.841Z,5.80
2022-11-21T23:33:40.410Z,5.80
2022-11-21T23:36:07.990Z,6.10
2022-11-21T23:38:35.469Z,5.80
2022-11-21T23:41:02.882Z,6.10
2022-11-21T23:43:30.428Z,5.90
2022-11-21T23:45:57.868Z,6.10
2022-11-21T23:48:25.451Z,6.00
2022-11-21T23:50:52.943Z,6.10
2022-11-21T23:53:20.881Z,6.00
2022-11-21T23:55:48.548Z,6.10
2022-11-21T23:58:16.341Z,5.90
